METAR stanice u blizini

 

LYBE - Beograd / Surčin, Srbija
Ažurirano: 27/11/2022 10:30
Mist, Oblačno
Mist, Oblačno
 Pravac vetra varies
Vetar: varies 4 km/h
Temperatura: 5°C
Tačka rose: 5°C
Vlažnost: 100%
Pritisak: 1029 hPa
Pregled: Mist
Oblaci: Oblačno
Vidljivost: 2 km
Cloud details: Oblačno 61 m
2022/11/27 09:30 LYBE 270930Z VRB02KT 1500 BR OVC002 05/05 Q1029 NOSIG
LYBT - Beograd / Batajnica, Srbija
Ažurirano: 27/11/2022 10:30
Mist, Oblačno
Mist, Oblačno
 Pravac vetra varies
Vetar: varies 2 km/h
Temperatura: 5°C
Tačka rose: 5°C
Vlažnost: 100%
Pritisak: 1029 hPa
Pregled: Mist
Oblaci: Oblačno
Vidljivost: 1 km
Cloud details: Oblačno 61 m
2022/11/27 09:30 LYBT 270930Z VRB01KT 1200 R12/1900U R30/P2000N BR OVC002 05/05 Q1029 NOSIG
LYVR - Vršac, Srbija
Ažurirano: 27/11/2022 10:30
Oblačno
Oblačno
 Pravac vetra IJI
Vetar: IJI 7 km/h
Temperatura: 5°C
Osećaj hladnoće: 3°C
Tačka rose: 5°C
Vlažnost: 100%
Pritisak: 1030 hPa
Oblaci: Oblačno
Vidljivost: 9 km
Cloud details: Mostly Cloudy 396 m
Oblačno 1859 m
2022/11/27 09:30 LYVR 270930Z AUTO 11004KT 070V150 9000 BKN013/// OVC061/// 05/05 Q1030
 
LYKV - Lađevci, Srbija
Ažurirano: 27/11/2022 10:30
Mist, Pretežno oblačno
Mist, Pretežno oblačno
 Pravac vetra varies
Vetar: varies 4 km/h
Temperatura: 4°C
Tačka rose: 4°C
Vlažnost: 100%
Pritisak: 1028 hPa
Pregled: Mist
Oblaci: Mostly Cloudy
Vidljivost: 2 km
Cloud details: Mostly Cloudy 213 m
2022/11/27 09:30 LYKV 270930Z VRB02KT 2000 BR BKN007 04/04 Q1028 NOSIG
LYNI - Niš, Srbija
Ažurirano: 27/11/2022 10:30
Oblačno
Oblačno
 Pravac vetra SZ
Vetar: SZ 7 km/h
Temperatura: 5°C
Osećaj hladnoće: 3°C
Tačka rose: 2°C
Vlažnost: 81%
Pritisak: 1029 hPa
Oblaci: Oblačno
Vidljivost: 10 km
Cloud details: Few Clouds 244 m
Mostly Cloudy 457 m
Oblačno 914 m
2022/11/27 09:30 LYNI 270930Z 31004KT 280V350 9999 FEW008 BKN015 OVC030 05/02 Q1029 NOSIG
BKPR - Priština, Srbija
Ažurirano: 27/11/2022 11:00
Mostly Cloudy
Mostly Cloudy
 Pravac vetra S
Vetar: S 13 km/h
Temperatura: 4°C
Osećaj hladnoće: 1°C
Tačka rose: 1°C
Vlažnost: 81%
Pritisak: 1026 hPa
Oblaci: Mostly Cloudy
Vidljivost: 10 km
Cloud details: Few Clouds 914 m
Mostly Cloudy 2743 m
2022/11/27 10:00 BKPR 271000Z 36007KT 9999 FEW030 BKN090 04/01 Q1026 NOSIG
 
LHPP - Pecs / Pogany, Hungary
Ažurirano: 27/11/2022 10:15
Oblačno
Oblačno
 Pravac vetra SI
Vetar: SI 4 km/h
Temperatura: 7°C
Tačka rose: 4°C
Vlažnost: 81%
Pritisak: 1029 hPa
Oblaci: Oblačno
Vidljivost: 10 km
Cloud details: Oblačno 579 m
2022/11/27 09:15 LHPP 270915Z AUTO 05002KT 9999 OVC019 07/04 Q1029
LHUD - Szeged, Hungary
Ažurirano: 04/07/2019 01:45
NOT Current
Vedro
Vedro
 Pravac vetra S
Vetar: S 7 km/h
Temperatura: 18°C
Tačka rose: 13°C
Vlažnost: 73%
Pritisak: 1019 hPa
Pregled: Vedro
Vidljivost: greater than 10 km
2019/07/03 23:45 LHUD 032345Z 35004KT CAVOK 18/13 Q1019
LRTR - Timisoara, Romania
Ažurirano: 27/11/2022 10:30
Magla, Oblačno
Magla, Oblačno
 Pravac vetra IJI
Vetar: IJI 7 km/h
Temperatura: 1°C
Osećaj hladnoće: -2°C
Tačka rose: 1°C
Vlažnost: 100%
Pritisak: 1029 hPa
Pregled: Magla
Oblaci: Oblačno
Vidljivost: 0 km
Cloud details: Oblačno 30 m
2022/11/27 09:30 LRTR 270930Z 11004KT 0300 R29/0375N FG VV001 01/01 Q1029
 
LRCV - Craiova, Romania
Ažurirano: 27/11/2022 10:30
Partly Cloudy
Partly Cloudy
 Pravac vetra varies
Vetar: varies 4 km/h
Temperatura: 4°C
Tačka rose: 2°C
Vlažnost: 87%
Pritisak: 1028 hPa
Oblaci: Partly Cloudy
Vidljivost: 7 km
2022/11/27 09:30 LRCV 270930Z VRB02KT 7000 NSC 04/02 Q1028
LBSF - Sofia, Bulgaria
Ažurirano: 27/11/2022 10:30
Partly Cloudy
Partly Cloudy
 Pravac vetra varies
Vetar: varies 2 km/h
Temperatura: 2°C
Tačka rose: 0°C
Vlažnost: 87%
Pritisak: 1027 hPa
Oblaci: Partly Cloudy
Vidljivost: 6 km
Cloud details: Partly Cloudy 335 m
2022/11/27 09:30 LBSF 270930Z VRB01KT 6000 SCT011 02/00 Q1027 NOSIG
LWSK - Skoplje, Makedonija
Ažurirano: 27/11/2022 10:30
Few Clouds
Few Clouds
 Pravac vetra SSI
Vetar: SSI 7 km/h
Temperatura: 6°C
Osećaj hladnoće: 4°C
Tačka rose: 2°C
Vlažnost: 76%
Pritisak: 1027 hPa
Oblaci: Few Clouds
Vidljivost: 10 km
Cloud details: Few Clouds 1829 m
2022/11/27 09:30 LWSK 270930Z 02004KT 9999 FEW060 06/02 Q1027 NOSIG
 
LYPG - Podgorica, Crna Gora
Ažurirano: 27/11/2022 10:30
Mostly Cloudy
Mostly Cloudy
 Pravac vetra varies
Vetar: varies 4 km/h
Temperatura: 11°C
Tačka rose: 1°C
Vlažnost: 50%
Pritisak: 1024 hPa
Oblaci: Mostly Cloudy
Vidljivost: 10 km
Cloud details: Few Clouds 1524 m
Mostly Cloudy 2743 m
2022/11/27 09:30 LYPG 270930Z VRB02KT 9999 FEW050 BKN090 11/01 Q1024 NOSIG
LQSA - Sarajevo, Bosna i Hercegovina
Ažurirano: 27/11/2022 10:30
Mist, Pretežno oblačno
Mist, Pretežno oblačno
 Pravac vetra varies
Vetar: varies 4 km/h
Temperatura: 4°C
Tačka rose: 4°C
Vlažnost: 100%
Pritisak: 1027 hPa
Pregled: Mist
Oblaci: Mostly Cloudy
Vidljivost: 3 km
Cloud details: Few Clouds 305 m
Partly Cloudy 488 m
Mostly Cloudy 1219 m
2022/11/27 09:30 LQSA 270930Z VRB02KT 2500 BR FEW010 SCT016 BKN040 04/04 Q1027 NOSIG
LDOS - Osijek, Hrvatksa
Ažurirano: 27/11/2022 10:30
Mist, Oblačno
Mist, Oblačno
 Pravac vetra varies
Vetar: varies 2 km/h
Temperatura: 6°C
Tačka rose: 5°C
Vlažnost: 93%
Pritisak: 1029 hPa
Pregled: Mist
Oblaci: Oblačno
Vidljivost: 3 km
Cloud details: Partly Cloudy 305 m
Oblačno 823 m
2022/11/27 09:30 LDOS 270930Z VRB01KT 2500 BR SCT010 OVC027 06/05 Q1029